createdAt,value
2022-11-22T00:00:48.115Z,7.63
2022-11-22T00:03:18.782Z,8.31
2022-11-22T00:05:46.605Z,7.67
2022-11-22T00:08:14.245Z,6.32
2022-11-22T00:10:41.928Z,5.22
2022-11-22T00:13:09.862Z,4.43
2022-11-22T00:15:37.527Z,3.81
2022-11-22T00:18:05.332Z,3.69
2022-11-22T00:20:33.775Z,5.21
2022-11-22T00:23:01.436Z,6.20
2022-11-22T00:25:29.083Z,6.47
2022-11-22T00:27:56.746Z,6.72
2022-11-22T00:30:24.393Z,6.95
2022-11-22T00:32:52.530Z,7.74
2022-11-22T00:35:20.174Z,8.50
2022-11-22T00:37:48.173Z,8.10
2022-11-22T00:40:16.569Z,6.71
2022-11-22T00:42:45.100Z,5.46
2022-11-22T00:45:12.946Z,4.52
2022-11-22T00:47:40.700Z,3.86
2022-11-22T00:50:10.000Z,4.55
2022-11-22T00:52:37.755Z,5.63
2022-11-22T00:55:05.940Z,6.23
2022-11-22T00:57:33.741Z,6.41
2022-11-22T01:00:01.497Z,6.58
2022-11-22T01:02:30.306Z,6.62
2022-11-22T01:04:57.940Z,7.13
2022-11-22T01:07:25.879Z,7.51
2022-11-22T01:09:53.583Z,7.48
2022-11-22T01:12:21.215Z,7.87
2022-11-22T01:14:49.060Z,7.76
2022-11-22T01:17:17.422Z,6.48
2022-11-22T01:19:45.747Z,5.32
2022-11-22T01:22:13.419Z,4.45
2022-11-22T01:24:41.128Z,3.82
2022-11-22T01:27:08.846Z,3.32
2022-11-22T01:29:36.628Z,3.64
2022-11-22T01:32:04.523Z,4.82
2022-11-22T01:34:32.444Z,5.50
2022-11-22T01:37:00.196Z,6.03
2022-11-22T01:39:28.458Z,6.60
2022-11-22T01:41:56.585Z,7.82
2022-11-22T01:44:28.425Z,8.58
2022-11-22T01:47:25.161Z,8.34
2022-11-22T01:50:01.998Z,6.74
2022-11-22T01:52:32.810Z,5.52
2022-11-22T01:55:06.104Z,4.64
2022-11-22T01:57:38.432Z,3.96
2022-11-22T02:00:12.997Z,3.69
2022-11-22T02:02:50.601Z,5.73
2022-11-22T02:05:21.624Z,7.93
2022-11-22T02:07:59.048Z,8.80
2022-11-22T02:10:29.968Z,8.53
2022-11-22T02:13:00.182Z,7.11
2022-11-22T02:15:27.930Z,5.88
2022-11-22T02:17:58.530Z,5.02
2022-11-22T02:20:26.249Z,4.35
2022-11-22T02:23:06.911Z,3.86
2022-11-22T02:25:37.400Z,4.25
2022-11-22T02:28:05.395Z,6.78
2022-11-22T02:30:33.067Z,9.09
2022-11-22T02:33:02.935Z,9.47
2022-11-22T02:35:31.141Z,7.90
2022-11-22T02:38:09.471Z,6.47
2022-11-22T02:40:51.253Z,5.40
2022-11-22T02:43:24.876Z,4.67
2022-11-22T02:45:52.571Z,4.16
2022-11-22T02:48:20.947Z,3.70
2022-11-22T02:50:49.067Z,4.11
2022-11-22T02:53:16.694Z,6.24
2022-11-22T02:55:44.393Z,7.99
2022-11-22T02:58:12.217Z,8.86
2022-11-22T03:00:40.431Z,8.76
2022-11-22T03:03:08.127Z,7.40
2022-11-22T03:05:35.772Z,6.21
2022-11-22T03:08:03.442Z,5.35
2022-11-22T03:10:31.214Z,4.66
2022-11-22T03:12:59.616Z,4.10
2022-11-22T03:15:27.443Z,3.64
2022-11-22T03:18:00.132Z,4.35
2022-11-22T03:20:28.601Z,7.27
2022-11-22T03:22:56.352Z,8.76
2022-11-22T03:25:23.989Z,9.09
2022-11-22T03:27:51.632Z,7.75
2022-11-22T03:30:19.423Z,6.37
2022-11-22T03:32:47.326Z,5.35
2022-11-22T03:35:14.998Z,4.60
2022-11-22T03:37:42.652Z,4.03
2022-11-22T03:40:10.685Z,3.58
2022-11-22T03:42:38.351Z,3.96
2022-11-22T03:45:06.795Z,6.54
2022-11-22T03:47:34.444Z,8.54
2022-11-22T03:50:02.109Z,9.24
2022-11-22T03:52:29.853Z,8.57
2022-11-22T03:54:57.572Z,7.02
2022-11-22T03:57:25.211Z,5.75
2022-11-22T03:59:52.938Z,4.82
2022-11-22T04:02:20.604Z,4.12
2022-11-22T04:04:48.312Z,4.30
2022-11-22T04:07:16.157Z,5.83
2022-11-22T04:09:43.808Z,6.90
2022-11-22T04:12:11.438Z,7.32
2022-11-22T04:14:57.919Z,7.41
2022-11-22T04:17:40.813Z,7.57
2022-11-22T04:20:32.933Z,7.77
2022-11-22T04:23:06.561Z,7.78
2022-11-22T04:25:36.431Z,6.74
2022-11-22T04:28:05.174Z,5.55
2022-11-22T04:30:52.758Z,4.62
2022-11-22T04:33:21.268Z,3.85
2022-11-22T04:35:50.006Z,3.32
2022-11-22T04:38:18.757Z,3.61
2022-11-22T04:40:47.080Z,5.41
2022-11-22T04:43:45.502Z,6.29
2022-11-22T04:46:14.756Z,6.58
2022-11-22T04:48:43.045Z,6.67
2022-11-22T04:51:33.355Z,6.70
2022-11-22T04:54:01.014Z,6.80
2022-11-22T04:56:28.724Z,6.88
2022-11-22T04:58:56.491Z,7.09
2022-11-22T05:01:24.207Z,7.19
2022-11-22T05:03:51.979Z,7.15
2022-11-22T05:06:19.686Z,7.11
2022-11-22T05:08:47.875Z,7.09
2022-11-22T05:11:15.618Z,7.06
2022-11-22T05:13:43.648Z,7.19
2022-11-22T05:16:13.665Z,7.47
2022-11-22T05:18:42.159Z,7.47
2022-11-22T05:21:14.561Z,7.60
2022-11-22T05:23:57.120Z,7.65
2022-11-22T05:26:28.710Z,6.52
2022-11-22T05:28:58.162Z,5.42
2022-11-22T05:31:27.555Z,4.61
2022-11-22T05:33:57.120Z,3.99
2022-11-22T05:36:25.230Z,4.15
2022-11-22T05:38:53.892Z,5.45
2022-11-22T05:41:21.716Z,6.35
2022-11-22T05:43:49.523Z,6.96
2022-11-22T05:46:25.089Z,7.26
2022-11-22T05:48:55.111Z,7.32
2022-11-22T05:51:29.249Z,7.40
2022-11-22T05:54:02.323Z,7.57
2022-11-22T05:56:30.095Z,7.87
2022-11-22T05:58:57.783Z,7.92
2022-11-22T06:01:25.718Z,8.05
2022-11-22T06:03:54.184Z,7.65
2022-11-22T06:06:23.420Z,6.53
2022-11-22T06:08:51.628Z,5.56
2022-11-22T06:11:22.212Z,4.85
2022-11-22T06:13:55.256Z,4.25
2022-11-22T06:16:23.471Z,4.66
2022-11-22T06:18:51.364Z,6.34
2022-11-22T06:21:23.651Z,6.74
2022-11-22T06:23:55.497Z,6.90
2022-11-22T06:26:24.241Z,7.16
2022-11-22T06:28:52.515Z,7.28
2022-11-22T06:31:22.833Z,7.34
2022-11-22T06:33:52.641Z,7.61
2022-11-22T06:36:21.634Z,7.75
2022-11-22T06:38:49.631Z,7.66
2022-11-22T06:41:20.342Z,7.54
2022-11-22T06:43:50.388Z,7.82
2022-11-22T06:46:20.155Z,8.41
2022-11-22T06:48:48.795Z,9.38
2022-11-22T06:51:18.917Z,8.54
2022-11-22T06:53:49.024Z,6.97
2022-11-22T06:56:23.246Z,5.73
2022-11-22T06:58:52.066Z,4.81
2022-11-22T07:01:22.618Z,4.14
2022-11-22T07:03:51.350Z,3.63
2022-11-22T07:06:19.656Z,3.87
2022-11-22T07:08:47.609Z,5.13
2022-11-22T07:11:18.351Z,6.20
2022-11-22T07:13:47.465Z,6.62
2022-11-22T07:16:17.626Z,6.89
2022-11-22T07:18:45.482Z,6.93
2022-11-22T07:21:16.525Z,6.94
2022-11-22T07:23:46.074Z,7.06
2022-11-22T07:26:15.759Z,7.26
2022-11-22T07:28:43.837Z,7.32
2022-11-22T07:31:13.751Z,7.10
2022-11-22T07:33:42.564Z,7.14
2022-11-22T07:36:13.229Z,7.50
2022-11-22T07:38:41.479Z,7.47
2022-11-22T07:41:09.972Z,7.07
2022-11-22T07:43:37.875Z,7.63
2022-11-22T07:46:08.265Z,8.02
2022-11-22T07:48:36.005Z,8.06
2022-11-22T07:51:07.664Z,8.03
2022-11-22T07:53:35.539Z,8.10
2022-11-22T07:56:04.664Z,8.32
2022-11-22T07:58:33.904Z,8.04
2022-11-22T08:01:07.214Z,6.83
2022-11-22T08:03:36.021Z,5.75
2022-11-22T08:06:06.377Z,4.97
2022-11-22T08:08:35.204Z,4.45
2022-11-22T08:11:03.870Z,5.78
2022-11-22T08:13:32.588Z,6.96
2022-11-22T08:16:08.693Z,8.01
2022-11-22T08:18:37.771Z,9.18
2022-11-22T08:21:11.778Z,9.20
2022-11-22T08:23:40.680Z,7.83
2022-11-22T08:26:10.143Z,6.56
2022-11-22T08:28:38.335Z,5.57
2022-11-22T08:31:09.140Z,4.88
2022-11-22T08:33:36.939Z,4.39
2022-11-22T08:36:05.531Z,4.89
2022-11-22T08:38:33.266Z,7.15
2022-11-22T08:41:00.967Z,8.14
2022-11-22T08:43:28.661Z,9.00
2022-11-22T08:45:58.387Z,9.78
2022-11-22T08:48:26.523Z,9.82
2022-11-22T08:50:57.011Z,8.51
2022-11-22T08:53:25.608Z,7.30
2022-11-22T08:55:54.730Z,6.39
2022-11-22T08:58:22.881Z,5.71
2022-11-22T09:00:51.881Z,6.09
2022-11-22T09:03:19.604Z,6.90
2022-11-22T09:08:38.594Z,8.17
2022-11-22T09:11:12.035Z,8.42
2022-11-22T09:13:39.932Z,8.50
2022-11-22T09:16:19.246Z,8.62
2022-11-22T09:18:47.792Z,8.21
2022-11-22T09:21:21.041Z,7.20
2022-11-22T09:23:50.244Z,6.34
2022-11-22T09:26:20.416Z,5.72
2022-11-22T09:28:48.741Z,5.63
2022-11-22T09:31:19.521Z,6.75
2022-11-22T09:33:49.400Z,7.77
2022-11-22T09:36:22.499Z,8.36
2022-11-22T09:38:51.095Z,8.62
2022-11-22T09:41:37.512Z,8.76
2022-11-22T09:44:17.800Z,8.75
2022-11-22T09:46:55.124Z,8.01
2022-11-22T09:49:41.942Z,6.90
2022-11-22T09:52:15.290Z,5.96
2022-11-22T09:54:53.954Z,5.32
2022-11-22T09:57:32.536Z,5.37
2022-11-22T10:00:33.080Z,6.47
2022-11-22T10:03:30.414Z,7.31
2022-11-22T10:06:07.101Z,8.94
2022-11-22T10:08:52.152Z,9.80
2022-11-22T10:11:43.196Z,9.26
2022-11-22T10:14:36.228Z,7.81
2022-11-22T10:17:25.361Z,6.67
2022-11-22T10:20:13.513Z,5.89
2022-11-22T10:22:41.238Z,5.33
2022-11-22T10:25:27.567Z,5.03
2022-11-22T10:28:09.945Z,5.78
2022-11-22T10:30:42.614Z,6.42
2022-11-22T10:33:22.765Z,6.57
2022-11-22T10:36:07.099Z,6.73
2022-11-22T10:38:52.840Z,6.93
2022-11-22T10:41:32.334Z,7.58
2022-11-22T10:44:17.724Z,8.38
2022-11-22T10:47:10.943Z,8.81
2022-11-22T10:49:50.045Z,8.50
2022-11-22T10:52:55.241Z,7.41
2022-11-22T10:55:53.898Z,6.38
2022-11-22T10:58:29.281Z,5.61
2022-11-22T11:01:07.049Z,5.12
2022-11-22T11:03:39.704Z,5.42
2022-11-22T11:06:43.178Z,6.72
2022-11-22T11:12:19.687Z,8.85
2022-11-22T11:14:52.071Z,8.51
2022-11-22T11:17:32.452Z,7.39
2022-11-22T11:20:04.918Z,6.35
2022-11-22T11:23:12.362Z,5.75
2022-11-22T11:25:43.659Z,5.46
2022-11-22T11:28:20.326Z,6.94
2022-11-22T11:31:06.939Z,8.19
2022-11-22T11:33:38.352Z,9.13
2022-11-22T11:36:14.075Z,8.98
2022-11-22T11:38:44.569Z,7.66
2022-11-22T11:41:30.129Z,6.58
2022-11-22T11:44:03.782Z,5.79
2022-11-22T11:46:40.838Z,6.44
2022-11-22T11:49:11.495Z,7.16
2022-11-22T11:51:42.502Z,7.42
2022-11-22T11:54:19.980Z,7.45
2022-11-22T11:56:52.466Z,7.44
2022-11-22T11:59:43.057Z,7.54
2022-11-22T12:02:13.754Z,7.96
2022-11-22T12:04:58.831Z,7.74
2022-11-22T12:07:35.932Z,6.55
2022-11-22T12:10:42.432Z,5.66
2022-11-22T12:13:10.143Z,5.37
2022-11-22T12:15:53.739Z,6.23
2022-11-22T12:18:41.840Z,6.53
2022-11-22T12:21:35.269Z,6.69
2022-11-22T12:24:45.617Z,6.71
2022-11-22T12:27:14.224Z,6.74
2022-11-22T12:29:44.578Z,6.77
2022-11-22T12:32:39.698Z,6.72
2022-11-22T12:35:14.530Z,6.66
2022-11-22T12:37:50.066Z,6.82
2022-11-22T12:40:31.674Z,6.97
2022-11-22T12:43:03.662Z,7.17
2022-11-22T12:46:12.223Z,7.43
2022-11-22T12:48:55.006Z,7.40
2022-11-22T12:51:28.788Z,7.44
2022-11-22T12:54:02.012Z,7.67
2022-11-22T12:56:44.195Z,7.59
2022-11-22T12:59:11.901Z,7.65
2022-11-22T13:01:47.756Z,7.70
2022-11-22T13:04:22.756Z,7.36
2022-11-22T13:07:15.666Z,6.27
2022-11-22T13:09:55.632Z,5.51
2022-11-22T13:12:31.007Z,7.46
2022-11-22T13:14:59.593Z,9.21
2022-11-22T13:17:34.176Z,9.23
2022-11-22T13:20:06.228Z,7.73
2022-11-22T13:22:52.071Z,6.45
2022-11-22T13:25:42.936Z,5.36
2022-11-22T13:28:25.736Z,5.84
2022-11-22T13:31:12.000Z,7.12
2022-11-22T13:33:53.646Z,8.41
2022-11-22T13:36:27.445Z,8.54
2022-11-22T13:39:03.319Z,7.30
2022-11-22T13:41:58.733Z,6.04
2022-11-22T13:44:33.142Z,5.01
2022-11-22T13:47:25.117Z,4.79
2022-11-22T13:49:54.123Z,6.12
2022-11-22T13:52:22.276Z,6.35
2022-11-22T13:54:49.973Z,6.39
2022-11-22T13:57:42.558Z,6.38
2022-11-22T14:00:13.936Z,6.36
2022-11-22T14:02:43.525Z,6.39
2022-11-22T14:05:19.772Z,6.40
2022-11-22T14:07:56.324Z,7.55
2022-11-22T14:10:27.159Z,8.50
2022-11-22T14:13:13.677Z,8.17
2022-11-22T14:15:55.048Z,6.69
2022-11-22T14:18:50.891Z,5.50
2022-11-22T14:21:40.284Z,4.60
2022-11-22T14:24:14.157Z,5.56
2022-11-22T14:26:41.885Z,8.34
2022-11-22T14:29:37.396Z,9.59
2022-11-22T14:32:16.175Z,8.50
2022-11-22T14:35:05.837Z,6.92
2022-11-22T14:37:43.892Z,5.65
2022-11-22T14:40:26.785Z,4.83
2022-11-22T14:42:57.528Z,5.36
2022-11-22T14:45:35.982Z,7.08
2022-11-22T14:48:20.358Z,8.68
2022-11-22T14:50:56.195Z,8.01
2022-11-22T14:53:33.515Z,6.57
2022-11-22T14:56:20.143Z,5.36
2022-11-22T14:59:25.967Z,5.94
2022-11-22T15:02:07.513Z,9.32
2022-11-22T15:09:18.219Z,10.21
2022-11-22T15:09:21.188Z,8.27
2022-11-22T15:11:16.040Z,6.39
2022-11-22T15:14:02.578Z,5.33
2022-11-22T15:59:43.364Z,6.26
2022-11-22T16:02:22.602Z,7.00
2022-11-22T16:06:05.694Z,7.23
2022-11-22T16:08:00.922Z,7.45
2022-11-22T16:10:33.200Z,7.72
2022-11-22T16:13:32.103Z,7.85
2022-11-22T16:16:03.962Z,6.31
2022-11-22T16:18:31.989Z,5.66
2022-11-22T16:21:04.256Z,6.83
2022-11-22T16:23:34.956Z,8.10
2022-11-22T16:26:18.992Z,8.63
2022-11-22T16:28:48.371Z,8.67
2022-11-22T16:31:29.929Z,7.45
2022-11-22T16:33:58.236Z,5.91
2022-11-22T16:36:29.759Z,5.81
2022-11-22T16:38:57.771Z,6.92
2022-11-22T16:41:27.997Z,7.52
2022-11-22T16:44:10.377Z,7.93
2022-11-22T16:46:39.978Z,7.95
2022-11-22T16:49:19.170Z,7.20
2022-11-22T16:51:48.555Z,5.76
2022-11-22T16:54:19.491Z,5.77
2022-11-22T16:56:47.658Z,6.99
2022-11-22T16:59:15.852Z,7.77
2022-11-22T17:01:44.234Z,8.17
2022-11-22T17:04:23.794Z,7.22
2022-11-22T17:06:51.948Z,5.78
2022-11-22T17:09:19.868Z,5.47
2022-11-22T17:11:47.830Z,7.01
2022-11-22T17:14:17.037Z,8.16
2022-11-22T17:16:46.431Z,8.58
2022-11-22T17:19:37.348Z,7.32
2022-11-22T17:22:02.324Z,5.59
2022-11-22T17:24:30.365Z,5.92
2022-11-22T17:26:58.723Z,7.16
2022-11-22T17:32:15.203Z,6.75
2022-11-22T17:34:42.912Z,5.33
2022-11-22T17:37:12.192Z,5.46
2022-11-22T17:39:40.633Z,6.86
2022-11-22T17:42:08.774Z,7.86
2022-11-22T17:44:36.485Z,8.30
2022-11-22T17:47:04.326Z,7.00
2022-11-22T17:49:32.325Z,5.55
2022-11-22T17:52:00.645Z,4.80
2022-11-22T17:54:28.371Z,5.93
2022-11-22T17:56:56.293Z,7.27
2022-11-22T17:59:23.985Z,7.88
2022-11-22T18:01:51.754Z,7.51
2022-11-22T18:04:19.409Z,6.34
2022-11-22T18:06:47.183Z,5.11
2022-11-22T18:09:14.964Z,5.12
2022-11-22T18:11:43.542Z,6.31
2022-11-22T18:14:11.470Z,6.93
2022-11-22T18:16:39.344Z,7.22
2022-11-22T18:19:12.825Z,7.55
2022-11-22T18:21:40.505Z,8.25
2022-11-22T18:24:08.536Z,8.79
2022-11-22T18:26:40.634Z,8.36
2022-11-22T18:31:58.219Z,5.30
2022-11-22T18:34:27.611Z,4.45
2022-11-22T18:37:00.904Z,4.44
2022-11-22T18:39:36.740Z,5.84
2022-11-22T18:42:06.979Z,6.80
2022-11-22T18:44:34.728Z,7.44
2022-11-22T18:47:03.072Z,7.95
2022-11-22T18:49:31.249Z,8.17
2022-11-22T18:51:59.502Z,8.05
2022-11-22T18:54:27.189Z,6.92
2022-11-22T18:56:57.333Z,5.68
2022-11-22T18:59:25.134Z,4.75
2022-11-22T19:01:52.900Z,4.63
2022-11-22T19:04:20.634Z,5.98
2022-11-22T19:06:48.285Z,7.23
2022-11-22T19:09:16.056Z,8.01
2022-11-22T19:11:43.795Z,8.53
2022-11-22T19:14:11.551Z,8.56
2022-11-22T19:16:39.426Z,7.27
2022-11-22T19:19:10.547Z,5.93
2022-11-22T19:21:38.217Z,4.78
2022-11-22T19:24:06.262Z,4.44
2022-11-22T19:26:34.196Z,5.61
2022-11-22T19:29:02.719Z,6.66
2022-11-22T19:31:31.685Z,7.39
2022-11-22T19:34:00.201Z,8.07
2022-11-22T19:36:36.089Z,8.42
2022-11-22T19:39:05.351Z,8.06
2022-11-22T19:41:33.812Z,6.57
2022-11-22T19:44:02.363Z,5.22
2022-11-22T19:46:30.431Z,4.98
2022-11-22T19:49:01.388Z,6.34
2022-11-22T19:51:31.105Z,7.41
2022-11-22T19:54:21.783Z,7.79
2022-11-22T19:56:50.477Z,7.87
2022-11-22T19:59:18.386Z,7.97
2022-11-22T20:01:46.402Z,7.19
2022-11-22T20:04:15.704Z,5.92
2022-11-22T20:06:48.584Z,4.88
2022-11-22T20:09:17.896Z,4.13
2022-11-22T20:11:47.024Z,4.27
2022-11-22T20:14:15.871Z,5.96
2022-11-22T20:16:44.066Z,7.37
2022-11-22T20:19:14.870Z,8.20
2022-11-22T20:21:42.888Z,8.85
2022-11-22T20:24:11.623Z,9.20
2022-11-22T20:26:39.349Z,8.37
2022-11-22T20:29:11.930Z,6.77
2022-11-22T20:31:40.934Z,5.45
2022-11-22T20:34:10.073Z,4.84
2022-11-22T20:36:37.905Z,6.12
2022-11-22T20:39:10.885Z,7.42
2022-11-22T20:41:40.078Z,8.08
2022-11-22T20:44:12.506Z,8.28
2022-11-22T20:46:41.206Z,8.43
2022-11-22T20:49:09.396Z,8.19
2022-11-22T20:51:39.802Z,6.78
2022-11-22T20:54:08.592Z,5.44
2022-11-22T20:56:37.544Z,5.15
2022-11-22T20:59:05.559Z,6.30
2022-11-22T21:01:33.857Z,7.12
2022-11-22T21:04:01.770Z,7.62
2022-11-22T21:06:29.479Z,7.86
2022-11-22T21:08:57.452Z,8.07
2022-11-22T21:11:36.693Z,8.20
2022-11-22T21:14:04.558Z,8.31
2022-11-22T21:16:32.508Z,8.14
2022-11-22T21:19:02.046Z,7.02
2022-11-22T21:21:31.014Z,5.80
2022-11-22T21:24:00.971Z,4.86
2022-11-22T21:26:29.858Z,4.68
2022-11-22T21:28:59.454Z,5.78
2022-11-22T21:31:28.048Z,6.62
2022-11-22T21:33:55.947Z,7.37
2022-11-22T21:36:23.734Z,7.96
2022-11-22T21:38:51.696Z,8.46
2022-11-22T21:41:39.215Z,8.70
2022-11-22T21:44:08.960Z,8.33
2022-11-22T21:46:37.164Z,6.84
2022-11-22T21:49:05.285Z,5.67
2022-11-22T21:51:32.940Z,4.78
2022-11-22T21:54:01.959Z,4.61
2022-11-22T21:56:29.844Z,6.00
2022-11-22T21:58:57.760Z,7.24
2022-11-22T22:01:25.994Z,7.48
2022-11-22T22:03:54.204Z,7.56
2022-11-22T22:06:22.317Z,7.81
2022-11-22T22:08:49.981Z,8.51
2022-11-22T22:11:17.952Z,9.26
2022-11-22T22:13:45.836Z,8.39
2022-11-22T22:16:19.228Z,6.89
2022-11-22T22:18:47.459Z,5.63
2022-11-22T22:21:16.560Z,4.77
2022-11-22T22:23:45.320Z,4.75
2022-11-22T22:26:15.578Z,6.04
2022-11-22T22:28:45.079Z,7.15
2022-11-22T22:31:21.785Z,7.65
2022-11-22T22:33:55.528Z,7.92
2022-11-22T22:36:25.637Z,8.15
2022-11-22T22:38:54.333Z,8.14
2022-11-22T22:41:22.233Z,6.95
2022-11-22T22:43:50.175Z,5.61
2022-11-22T22:46:20.426Z,4.65
2022-11-22T22:48:49.364Z,4.98
2022-11-22T22:51:19.777Z,5.95
2022-11-22T22:53:48.263Z,6.61
2022-11-22T22:56:18.365Z,7.36
2022-11-22T22:58:46.369Z,7.61
2022-11-22T23:01:17.509Z,7.99
2022-11-22T23:03:54.142Z,8.33
2022-11-22T23:06:22.417Z,8.02
2022-11-22T23:08:51.941Z,6.64
2022-11-22T23:11:41.235Z,5.25
2022-11-22T23:14:09.165Z,4.92
2022-11-22T23:16:38.833Z,6.04
2022-11-22T23:19:08.044Z,6.80
2022-11-22T23:21:36.319Z,7.27
2022-11-22T23:24:05.104Z,7.69
2022-11-22T23:26:32.867Z,7.94
2022-11-22T23:29:01.028Z,7.83
2022-11-22T23:31:28.709Z,6.71
2022-11-22T23:33:56.546Z,5.43
2022-11-22T23:36:24.249Z,4.40
2022-11-22T23:38:52.021Z,4.31
2022-11-22T23:41:22.622Z,5.81
2022-11-22T23:43:55.138Z,7.06
2022-11-22T23:46:26.407Z,7.61
2022-11-22T23:48:57.198Z,7.88
2022-11-22T23:51:26.475Z,8.02
2022-11-22T23:53:55.762Z,8.30
2022-11-22T23:56:23.772Z,8.11
2022-11-22T23:58:52.793Z,6.70
